createdAt,value
2022-08-26T00:00:06.168Z,21.2
2022-08-26T00:02:09.165Z,21.3
2022-08-26T00:04:12.248Z,21.3
2022-08-26T00:06:15.144Z,21.3
2022-08-26T00:08:21.254Z,21.4
2022-08-26T00:10:24.258Z,21.2
2022-08-26T00:12:31.510Z,21.3
2022-08-26T00:14:31.229Z,21.2
2022-08-26T00:16:33.304Z,21.4
2022-08-26T00:18:38.878Z,21.4
2022-08-26T00:20:39.264Z,21.3
2022-08-26T00:24:48.392Z,21.4
2022-08-26T00:26:51.607Z,21.4
2022-08-26T00:31:18.260Z,21.4
2022-08-26T00:33:21.121Z,21.4
2022-08-26T00:35:28.029Z,21.4
2022-08-26T00:37:30.378Z,21.4
2022-08-26T00:39:33.246Z,21.3
2022-08-26T00:41:36.246Z,21.4
2022-08-26T00:43:46.209Z,21.4
2022-08-26T00:45:42.377Z,21.4
2022-08-26T00:47:45.248Z,21.4
2022-08-26T00:49:51.349Z,21.3
2022-08-26T00:51:54.345Z,21.2
2022-08-26T00:53:57.336Z,21.2
2022-08-26T00:56:00.344Z,21.3
2022-08-26T00:58:03.323Z,21.2
2022-08-26T01:00:06.345Z,21.4
2022-08-26T01:02:09.568Z,21.3
2022-08-26T01:04:15.467Z,21.4
2022-08-26T01:06:18.443Z,21.4
2022-08-26T01:08:21.455Z,21.4
2022-08-26T01:10:24.435Z,21.5
2022-08-26T01:12:27.443Z,21.4
2022-08-26T01:14:30.457Z,21.4
2022-08-26T01:16:33.557Z,21.4
2022-08-26T01:23:48.622Z,21.5
2022-08-26T01:25:51.644Z,21.5
2022-08-26T01:27:54.611Z,21.4
2022-08-26T01:29:57.608Z,21.5
2022-08-26T01:32:04.999Z,21.5
2022-08-26T01:34:06.722Z,21.4
2022-08-26T01:36:09.712Z,21.5
2022-08-26T01:38:12.681Z,21.4
2022-08-26T01:44:21.685Z,21.4
2022-08-26T01:46:27.787Z,21.4
2022-08-26T01:48:30.769Z,21.4
2022-08-26T01:50:33.761Z,21.4
2022-08-26T01:52:36.758Z,21.2
2022-08-26T01:54:39.754Z,21.2
2022-08-26T01:56:42.758Z,21.2
2022-08-26T02:00:51.908Z,21.2
2022-08-26T02:02:54.788Z,21.1
2022-08-26T02:04:57.806Z,21.2
2022-08-26T02:09:03.714Z,21.1
2022-08-26T02:11:06.733Z,21
2022-08-26T02:13:09.668Z,21.1
2022-08-26T02:17:18.791Z,21.1
2022-08-26T02:19:21.775Z,21
2022-08-26T02:20:26.473Z,20.9
2022-08-26T02:22:27.827Z,21
2022-08-26T02:24:30.814Z,20.8
2022-08-26T02:26:33.800Z,20.8
2022-08-26T02:28:39.918Z,20.7
2022-08-26T02:30:42.910Z,20.7
2022-08-26T02:32:45.881Z,20.6
2022-08-26T02:34:48.866Z,20.6
2022-08-26T02:36:51.884Z,20.7
2022-08-26T02:38:54.333Z,20.8
2022-08-26T02:40:57.339Z,20.6
2022-08-26T02:43:03.453Z,20.6
2022-08-26T02:45:06.438Z,20.7
2022-08-26T02:47:09.554Z,20.6
2022-08-26T02:49:12.445Z,20.6
2022-08-26T02:51:15.437Z,20.5
2022-08-26T02:53:24.952Z,20.5
2022-08-26T02:57:27.532Z,20.3
2022-08-26T02:59:30.536Z,20.5
2022-08-26T03:01:33.623Z,20.3
2022-08-26T03:03:36.557Z,20.3
2022-08-26T03:05:39.550Z,20.3
2022-08-26T03:07:42.546Z,20.3
2022-08-26T03:09:45.540Z,20.4
2022-08-26T03:11:51.693Z,20.3
2022-08-26T03:13:56.258Z,20.4
2022-08-26T03:19:05.313Z,20.5
2022-08-26T03:29:24.430Z,20.4
2022-08-26T03:31:27.480Z,20.6
2022-08-26T03:33:30.454Z,20.6
2022-08-26T03:35:33.443Z,20.4
2022-08-26T03:37:36.449Z,20.3
2022-08-26T03:41:45.586Z,20.5
2022-08-26T03:47:54.598Z,20.2
2022-08-26T03:52:00.609Z,20.2
2022-08-26T03:54:06.718Z,20.1
2022-08-26T03:56:09.723Z,20.2
2022-08-26T03:58:12.723Z,20.3
2022-08-26T04:02:18.735Z,20.2
2022-08-26T04:06:24.753Z,20.2
2022-08-26T04:10:33.879Z,20.1
2022-08-26T04:12:36.882Z,20.3
2022-08-26T04:17:09.312Z,20.3
2022-08-26T04:19:12.333Z,20.2
2022-08-26T04:23:21.921Z,20.3
2022-08-26T04:25:24.920Z,20.3
2022-08-26T04:27:27.934Z,20.2
2022-08-26T04:29:30.938Z,20.2
2022-08-26T04:31:34.016Z,20.4
2022-08-26T04:33:36.966Z,20.4
2022-08-26T04:35:43.157Z,20.2
2022-08-26T04:37:46.071Z,20.3
2022-08-26T04:39:49.182Z,20.2
2022-08-26T04:41:52.122Z,20.3
2022-08-26T04:43:55.082Z,20.2
2022-08-26T04:52:10.235Z,20.3
2022-08-26T04:54:13.251Z,20.4
2022-08-26T04:56:16.267Z,20.5
2022-08-26T04:58:19.296Z,20.3
2022-08-26T05:02:25.278Z,20.6
2022-08-26T05:04:31.390Z,20.5
2022-08-26T05:06:36.971Z,20.5
2022-08-26T05:09:40.496Z,20.4
2022-08-26T05:11:43.485Z,20.5
2022-08-26T05:13:46.488Z,20.6
2022-08-26T05:26:07.660Z,20.6
2022-08-26T05:30:13.659Z,20.7
2022-08-26T05:32:19.784Z,20.7
2022-08-26T05:36:26.887Z,20.9
2022-08-26T05:38:30.265Z,20.8
2022-08-26T05:40:31.917Z,20.9
2022-08-26T05:42:34.834Z,20.9
2022-08-26T05:44:53.725Z,20.9
2022-08-26T05:46:44.154Z,20.9
2022-08-26T05:48:46.970Z,20.8
2022-08-26T05:50:49.946Z,20.9
2022-08-26T05:54:55.944Z,20.8
2022-08-26T05:56:58.953Z,20.9
2022-08-26T05:59:01.977Z,20.9
2022-08-26T06:01:08.106Z,20.8
2022-08-26T06:05:14.087Z,20.9
2022-08-26T06:06:17.127Z,20.9
2022-08-26T06:08:20.173Z,20.8
2022-08-26T06:10:32.033Z,20.9
2022-08-26T06:12:26.163Z,21
2022-08-26T06:14:32.257Z,20.9
2022-08-26T06:16:35.272Z,20.9
2022-08-26T06:18:38.236Z,20.9
2022-08-26T06:20:41.234Z,21
2022-08-26T06:22:44.227Z,21
2022-08-26T06:24:47.234Z,21
2022-08-26T06:26:50.610Z,20.9
2022-08-26T06:28:56.341Z,20.9
2022-08-26T06:30:59.412Z,20.9
2022-08-26T06:33:02.417Z,21
2022-08-26T06:35:05.325Z,21
2022-08-26T06:37:08.344Z,20.8
2022-08-26T06:39:11.404Z,20.9
2022-08-26T06:41:14.340Z,21
2022-08-26T06:43:20.436Z,21.1
2022-08-26T06:45:23.460Z,21.3
2022-08-26T06:47:26.431Z,21.3
2022-08-26T06:49:29.441Z,21.4
2022-08-26T06:51:32.422Z,21.4
2022-08-26T06:53:35.444Z,21.5
2022-08-26T06:55:38.424Z,21.5
2022-08-26T06:57:44.539Z,21.5
2022-08-26T06:59:47.550Z,21.6
2022-08-26T07:01:50.624Z,21.6
2022-08-26T07:02:53.606Z,21.8
2022-08-26T07:04:56.795Z,21.9
2022-08-26T07:06:59.531Z,22
2022-08-26T07:09:02.504Z,22
2022-08-26T07:11:08.616Z,22.2
2022-08-26T07:13:11.594Z,22.2
2022-08-26T07:15:14.584Z,22.2
2022-08-26T07:17:17.561Z,22.2
2022-08-26T07:19:27.546Z,22.3
2022-08-26T07:21:23.495Z,22.3
2022-08-26T07:23:26.476Z,22.4
2022-08-26T07:25:32.566Z,22.2
2022-08-26T07:27:35.530Z,22.4
2022-08-26T07:29:38.494Z,22.3
2022-08-26T07:35:47.405Z,22.3
2022-08-26T07:41:59.399Z,22.3
2022-08-26T07:44:02.395Z,22.3
2022-08-26T07:46:05.325Z,22.6
2022-08-26T07:48:08.485Z,22.8
2022-08-26T07:50:11.260Z,22.7
2022-08-26T07:52:14.204Z,22.7
2022-08-26T07:54:20.272Z,22.4
2022-08-26T07:56:23.555Z,22.5
2022-08-26T07:58:26.186Z,22.6
2022-08-26T08:00:49.376Z,22.6
2022-08-26T08:02:52.323Z,22.6
2022-08-26T08:04:55.339Z,22.4
2022-08-26T08:07:01.335Z,22.2
2022-08-26T08:09:04.296Z,22.3
2022-08-26T08:13:10.174Z,22.4
2022-08-26T08:15:13.124Z,22.8
2022-08-26T08:17:16.100Z,22.8
2022-08-26T08:19:19.075Z,23
2022-08-26T08:21:25.099Z,23.1
2022-08-26T08:23:28.032Z,23.2
2022-08-26T08:25:31.013Z,22.8
2022-08-26T08:27:33.960Z,22.7
2022-08-26T08:29:36.867Z,22.6
2022-08-26T08:31:57.042Z,22.4
2022-08-26T08:33:42.764Z,22.3
2022-08-26T08:35:48.829Z,22.4
2022-08-26T08:37:51.791Z,22.3
2022-08-26T08:39:54.747Z,22.3
2022-08-26T08:41:57.676Z,22.3
2022-08-26T08:44:00.632Z,22.4
2022-08-26T08:48:06.685Z,22.4
2022-08-26T08:50:12.618Z,22.6
2022-08-26T08:54:18.513Z,22.4
2022-08-26T08:59:27.448Z,22.4
2022-08-26T09:01:30.471Z,22.3
2022-08-26T09:03:36.488Z,22.4
2022-08-26T09:05:39.421Z,22.4
2022-08-26T09:07:43.944Z,22.2
2022-08-26T09:09:46.844Z,22.4
2022-08-26T09:13:52.746Z,22.3
2022-08-26T09:22:09.599Z,22.1
2022-08-26T09:28:16.552Z,22.5
2022-08-26T09:30:19.507Z,22.5
2022-08-26T09:32:25.571Z,22.5
2022-08-26T09:34:28.538Z,22.4
2022-08-26T09:40:37.419Z,22.4
2022-08-26T09:46:49.380Z,22.2
2022-08-26T09:51:58.333Z,22.5
2022-08-26T09:54:01.367Z,22.5
2022-08-26T09:56:04.220Z,22.4
2022-08-26T09:58:08.683Z,22.5
2022-08-26T10:00:13.261Z,22.2
2022-08-26T10:02:16.198Z,22.2
2022-08-26T10:04:19.239Z,22
2022-08-26T10:06:22.087Z,22
2022-08-26T10:08:25.048Z,22.1
2022-08-26T10:10:27.998Z,22.3
2022-08-26T10:12:30.948Z,22.6
2022-08-26T10:14:37.063Z,22.6
2022-08-26T10:16:40.005Z,22.5
2022-08-26T10:18:42.924Z,22.6
2022-08-26T10:22:48.850Z,22.7
2022-08-26T10:24:54.905Z,22.7
2022-08-26T10:29:00.770Z,23.2
2022-08-26T10:33:06.737Z,23.3
2022-08-26T10:35:09.598Z,23.4
2022-08-26T10:37:14.473Z,23.5
2022-08-26T10:39:15.473Z,23.4
2022-08-26T10:41:18.423Z,23.2
2022-08-26T10:45:27.513Z,23
2022-08-26T10:47:30.339Z,23.2
2022-08-26T10:48:35.607Z,23
2022-08-26T10:50:37.302Z,23
2022-08-26T10:54:42.143Z,23.1
2022-08-26T10:56:48.218Z,23.3
2022-08-26T10:58:51.143Z,23.4
2022-08-26T11:00:54.105Z,23.7
2022-08-26T11:02:57.000Z,23.9
2022-08-26T11:04:59.909Z,24
2022-08-26T11:07:02.851Z,23.8
2022-08-26T11:09:05.797Z,23.4
2022-08-26T11:11:11.844Z,23.2
2022-08-26T11:13:14.743Z,23
2022-08-26T11:15:17.679Z,22.9
2022-08-26T11:17:20.645Z,22.6
2022-08-26T11:19:24.606Z,22.7
2022-08-26T11:23:29.376Z,22.3
2022-08-26T11:27:38.342Z,22.3
2022-08-26T11:29:41.266Z,22.7
2022-08-26T11:31:44.225Z,22.8
2022-08-26T11:33:47.130Z,23.1
2022-08-26T11:35:50.057Z,22.9
2022-08-26T11:39:59.100Z,23.2
2022-08-26T11:42:01.977Z,23.4
2022-08-26T11:44:04.907Z,23.9
2022-08-26T11:46:28.740Z,23.6
2022-08-26T11:48:31.655Z,23.6
2022-08-26T11:50:34.592Z,23.4
2022-08-26T11:52:40.660Z,23.1
2022-08-26T11:54:44.679Z,23.1
2022-08-26T11:56:47.380Z,23.2
2022-08-26T11:58:50.318Z,23.4
2022-08-26T12:00:53.219Z,23.3
2022-08-26T12:02:56.159Z,23.5
2022-08-26T12:04:59.147Z,23.5
2022-08-26T12:07:05.151Z,23.3
2022-08-26T12:09:08.187Z,23.4
2022-08-26T12:11:10.959Z,23.4
2022-08-26T12:13:13.882Z,23.3
2022-08-26T12:15:16.803Z,23.5
2022-08-26T12:17:19.735Z,23.5
2022-08-26T12:19:22.664Z,23.2
2022-08-26T12:21:28.723Z,22.7
2022-08-26T12:23:31.630Z,22.6
2022-08-26T12:27:37.470Z,23.1
2022-08-26T12:31:43.371Z,23
2022-08-26T12:33:46.238Z,23
2022-08-26T12:41:01.214Z,22.7
2022-08-26T12:43:04.115Z,22.8
2022-08-26T12:47:09.966Z,22.7
2022-08-26T12:49:16.067Z,22.6
2022-08-26T12:51:19.160Z,22.4
2022-08-26T12:53:21.908Z,22.4
2022-08-26T12:59:30.707Z,22.2
2022-08-26T13:03:39.733Z,22.5
2022-08-26T13:05:42.697Z,22.5
2022-08-26T13:09:48.568Z,22.6
2022-08-26T13:11:51.494Z,22.4
2022-08-26T13:13:54.481Z,22.2
2022-08-26T13:15:57.465Z,22.2
2022-08-26T13:18:03.486Z,22.1
2022-08-26T13:20:06.409Z,22
2022-08-26T13:22:09.344Z,22.2
2022-08-26T13:24:12.313Z,22.1
2022-08-26T13:26:15.221Z,22.2
2022-08-26T13:28:18.228Z,22.2
2022-08-26T13:30:21.157Z,22.2
2022-08-26T13:32:27.822Z,22.3
2022-08-26T13:34:30.134Z,22.4
2022-08-26T13:36:33.214Z,22.1
2022-08-26T13:37:36.122Z,22.2
2022-08-26T13:39:39.059Z,22.3
2022-08-26T13:41:42.015Z,22.3
2022-08-26T13:43:44.958Z,22.4
2022-08-26T13:45:51.047Z,22.4
2022-08-26T13:47:54.053Z,22.6
2022-08-26T13:49:56.993Z,22.8
2022-08-26T13:51:59.923Z,22.6
2022-08-26T13:54:02.895Z,23
2022-08-26T13:58:08.934Z,23.1
2022-08-26T14:00:15.055Z,22.8
2022-08-26T14:02:17.770Z,22.9
2022-08-26T14:04:27.055Z,22.7
2022-08-26T14:06:23.695Z,22.7
2022-08-26T14:08:26.587Z,22.7
2022-08-26T14:10:29.564Z,22.4
2022-08-26T14:12:32.474Z,22.3
2022-08-26T14:14:38.588Z,22.3
2022-08-26T14:16:58.788Z,22.3
2022-08-26T14:18:50.035Z,22.2
2022-08-26T14:20:47.403Z,22.2
2022-08-26T14:23:12.670Z,22.3
2022-08-26T14:24:53.257Z,22.6
2022-08-26T14:26:56.241Z,22.4
2022-08-26T14:29:02.301Z,22.1
2022-08-26T14:31:05.281Z,22.3
2022-08-26T14:33:08.469Z,22
2022-08-26T14:34:11.255Z,22
2022-08-26T14:36:14.154Z,22
2022-08-26T14:38:17.165Z,21.9
2022-08-26T14:40:20.181Z,21.8
2022-08-26T14:42:26.162Z,21.7
2022-08-26T14:44:29.292Z,21.8
2022-08-26T14:46:32.160Z,21.7
2022-08-26T14:48:35.008Z,21.9
2022-08-26T14:52:40.964Z,21.9
2022-08-26T14:54:43.848Z,22
2022-08-26T14:56:49.957Z,22
2022-08-26T14:58:52.914Z,22.1
2022-08-26T15:00:55.885Z,22
2022-08-26T15:03:00.547Z,22.1
2022-08-26T15:05:03.329Z,22
2022-08-26T15:07:06.297Z,22.1
2022-08-26T15:09:09.228Z,22.1
2022-08-26T15:11:15.284Z,22.1
2022-08-26T15:15:21.473Z,21.9
2022-08-26T15:17:24.162Z,21.9
2022-08-26T15:19:27.144Z,21.9
2022-08-26T15:21:30.082Z,22
2022-08-26T15:23:33.175Z,22.2
2022-08-26T15:25:39.118Z,22.2
2022-08-26T15:27:42.092Z,22.1
2022-08-26T15:29:45.034Z,22.2
2022-08-26T15:32:02.628Z,22.1
2022-08-26T15:34:05.566Z,22.1
2022-08-26T15:36:08.558Z,21.7
2022-08-26T15:38:14.651Z,21.7
2022-08-26T15:40:17.632Z,21.9
2022-08-26T15:42:20.603Z,22
2022-08-26T15:44:23.454Z,21.9
2022-08-26T15:46:26.497Z,21.8
2022-08-26T15:48:29.365Z,21.7
2022-08-26T15:50:32.356Z,21.9
2022-08-26T15:52:38.434Z,22
2022-08-26T15:54:41.353Z,22.2
2022-08-26T15:56:44.314Z,22
2022-08-26T15:58:47.285Z,22
2022-08-26T16:00:50.210Z,22
2022-08-26T16:02:53.200Z,21.9
2022-08-26T16:04:56.136Z,21.9
2022-08-26T16:07:02.235Z,21.9
2022-08-26T16:09:05.201Z,21.7
2022-08-26T16:11:08.106Z,21.5
2022-08-26T16:13:12.944Z,21.6
2022-08-26T16:15:14.048Z,21.5
2022-08-26T16:17:16.973Z,21.6
2022-08-26T16:19:19.969Z,21.3
2022-08-26T16:21:26.058Z,21.5
2022-08-26T16:23:28.975Z,21.5
2022-08-26T16:25:32.060Z,21.8
2022-08-26T16:30:40.960Z,21.9
2022-08-26T16:32:43.863Z,21.9
2022-08-26T16:34:56.641Z,21.7
2022-08-26T16:36:52.938Z,21.6
2022-08-26T16:38:55.891Z,21.9
2022-08-26T16:40:58.809Z,21.7
2022-08-26T16:43:01.841Z,21.7
2022-08-26T16:45:04.767Z,21.7
2022-08-26T16:47:07.776Z,21.7
2022-08-26T16:51:16.755Z,21.4
2022-08-26T17:03:37.686Z,21
2022-08-26T17:05:40.645Z,20.9
2022-08-26T17:09:46.576Z,21
2022-08-26T17:11:49.637Z,21
2022-08-26T17:13:52.550Z,21
2022-08-26T17:23:11.702Z,20.8
2022-08-26T17:25:14.679Z,20.8
2022-08-26T17:27:17.634Z,21.1
2022-08-26T17:29:20.614Z,21
2022-08-26T17:31:27.045Z,20.8
2022-08-26T17:33:29.802Z,20.8
2022-08-26T17:35:32.660Z,20.8
2022-08-26T17:37:35.673Z,20.8
2022-08-26T17:39:38.630Z,20.5
2022-08-26T17:41:41.793Z,20.4
2022-08-26T17:43:44.632Z,20.5
2022-08-26T17:45:50.829Z,20.5
2022-08-26T17:47:53.871Z,20.5
2022-08-26T17:49:56.778Z,20.6
2022-08-26T17:51:59.673Z,20.6
2022-08-26T17:54:02.756Z,20.4
2022-08-26T17:56:05.679Z,20.4
2022-08-26T18:00:14.746Z,20.3
2022-08-26T18:02:17.832Z,20.3
2022-08-26T18:06:23.754Z,20.2
2022-08-26T18:12:32.706Z,20.2
2022-08-26T18:18:44.762Z,20.2
2022-08-26T18:19:47.857Z,20.2
2022-08-26T18:21:50.844Z,20.2
2022-08-26T18:23:53.817Z,20.3
2022-08-26T18:25:56.811Z,20.3
2022-08-26T18:28:02.997Z,20.1
2022-08-26T18:30:05.914Z,20
2022-08-26T18:32:08.905Z,20
2022-08-26T18:34:11.909Z,20.1
2022-08-26T18:36:14.884Z,19.9
2022-08-26T18:38:18.417Z,20
2022-08-26T18:44:30.041Z,20
2022-08-26T18:46:33.074Z,19.9
2022-08-26T18:48:36.038Z,19.9
2022-08-26T18:50:39.032Z,19.9
2022-08-26T18:52:42.011Z,19.8
2022-08-26T18:54:45.017Z,19.9
2022-08-26T18:58:54.111Z,19.9
2022-08-26T19:03:00.523Z,19.8
2022-08-26T19:05:03.365Z,19.8
2022-08-26T19:07:06.258Z,19.8
2022-08-26T19:09:09.153Z,19.8
2022-08-26T19:11:15.221Z,19.7
2022-08-26T19:13:18.189Z,19.7
2022-08-26T19:15:21.180Z,19.8
2022-08-26T19:17:50.563Z,19.7
2022-08-26T19:19:53.537Z,19.7
2022-08-26T19:21:56.516Z,19.5
2022-08-26T19:24:02.768Z,19.6
2022-08-26T19:26:05.639Z,19.7
2022-08-26T19:28:08.626Z,19.5
2022-08-26T19:30:11.630Z,19.6
2022-08-26T19:32:14.570Z,19.5
2022-08-26T19:34:18.281Z,19.6
2022-08-26T19:36:20.571Z,19.4
2022-08-26T19:38:27.818Z,19.5
2022-08-26T19:42:32.711Z,19.6
2022-08-26T19:44:35.611Z,19.5
2022-08-26T19:48:41.605Z,19.5
2022-08-26T19:50:44.682Z,19.6
2022-08-26T19:52:50.696Z,19.4
2022-08-26T19:54:53.781Z,19.4
2022-08-26T19:56:56.670Z,19.4
2022-08-26T19:58:59.670Z,19.5
2022-08-26T20:01:02.716Z,19.4
2022-08-26T20:03:05.741Z,19.4
2022-08-26T20:05:08.641Z,19.5
2022-08-26T20:07:18.592Z,19.4
2022-08-26T20:09:17.737Z,19.3
2022-08-26T20:11:20.710Z,19.3
2022-08-26T20:12:23.804Z,19.5
2022-08-26T20:14:26.767Z,19.5
2022-08-26T20:16:29.834Z,19.4
2022-08-26T20:18:32.771Z,19.4
2022-08-26T20:24:44.878Z,19.3
2022-08-26T20:26:48.024Z,19.2
2022-08-26T20:28:51.095Z,19.3
2022-08-26T20:30:53.857Z,19.3
2022-08-26T20:37:05.965Z,19.4
2022-08-26T20:41:12.005Z,19.2
2022-08-26T20:47:21.032Z,19.1
2022-08-26T20:49:27.160Z,19.3
2022-08-26T20:51:30.356Z,19.3
2022-08-26T20:53:33.192Z,19.3
2022-08-26T20:55:36.204Z,19.2
2022-08-26T20:57:40.813Z,19
2022-08-26T20:59:43.754Z,19.1
2022-08-26T21:01:46.746Z,19.1
2022-08-26T21:03:52.919Z,19
2022-08-26T21:05:55.849Z,19
2022-08-26T21:07:58.916Z,19.1
2022-08-26T21:09:01.975Z,19.1
2022-08-26T21:11:04.942Z,19
2022-08-26T21:13:08.026Z,18.9
2022-08-26T21:15:11.184Z,18.9
2022-08-26T21:17:17.116Z,19
2022-08-26T21:19:20.151Z,19
2022-08-26T21:21:25.050Z,19
2022-08-26T21:27:32.308Z,18.7
2022-08-26T21:29:35.251Z,18.9
2022-08-26T21:31:46.051Z,18.8
2022-08-26T21:33:44.342Z,18.8
2022-08-26T21:37:50.375Z,18.8
2022-08-26T21:39:53.504Z,18.7
2022-08-26T21:41:56.421Z,18.8
2022-08-26T21:46:05.691Z,18.8
2022-08-26T21:48:08.720Z,18.7
2022-08-26T21:50:11.614Z,18.6
2022-08-26T21:52:14.648Z,18.8
2022-08-26T21:54:17.678Z,18.6
2022-08-26T21:56:20.956Z,18.5
2022-08-26T21:58:23.670Z,18.5
2022-08-26T22:02:32.921Z,18.6
2022-08-26T22:04:35.826Z,18.5
2022-08-26T22:07:41.940Z,18.6
2022-08-26T22:09:44.955Z,18.6
2022-08-26T22:11:47.999Z,18.5
2022-08-26T22:13:54.171Z,18.5
2022-08-26T22:15:57.229Z,18.4
2022-08-26T22:18:00.181Z,18.5
2022-08-26T22:20:03.185Z,18.3
2022-08-26T22:22:06.177Z,18.3
2022-08-26T22:24:09.213Z,18.3
2022-08-26T22:26:12.250Z,18.2
2022-08-26T22:28:18.399Z,18.1
2022-08-26T22:30:21.486Z,18.1
2022-08-26T22:32:24.464Z,18.2
2022-08-26T22:36:30.455Z,18
2022-08-26T22:38:33.469Z,17.9
2022-08-26T22:40:36.522Z,17.8
2022-08-26T22:42:42.618Z,17.8
2022-08-26T22:44:45.652Z,17.7
2022-08-26T22:46:48.664Z,17.5
2022-08-26T22:48:53.825Z,17.6
2022-08-26T22:50:59.588Z,17.6
2022-08-26T22:52:57.769Z,17.5
2022-08-26T22:55:00.800Z,17.4
2022-08-26T22:57:06.917Z,17.2
2022-08-26T22:59:09.970Z,17.3
2022-08-26T23:01:13.105Z,17.2
2022-08-26T23:03:42.540Z,17.2
2022-08-26T23:05:45.541Z,17
2022-08-26T23:07:48.519Z,17.1
2022-08-26T23:09:54.719Z,17
2022-08-26T23:16:03.850Z,17
2022-08-26T23:18:06.850Z,17
2022-08-26T23:20:09.891Z,16.9
2022-08-26T23:22:12.937Z,16.9
2022-08-26T23:24:19.082Z,16.9
2022-08-26T23:28:25.152Z,16.9
2022-08-26T23:32:31.239Z,16.8
2022-08-26T23:34:34.267Z,16.8
2022-08-26T23:38:43.504Z,17
2022-08-26T23:40:46.508Z,16.9
2022-08-26T23:42:49.584Z,16.9
2022-08-26T23:46:55.660Z,17.1
2022-08-26T23:48:58.657Z,17
2022-08-26T23:51:01.692Z,17.1
2022-08-26T23:53:07.905Z,17.2
2022-08-26T23:55:10.922Z,17.1
2022-08-26T23:57:13.953Z,17.1
2022-08-26T23:58:17.031Z,17.1
